createdAt,value
2023-04-20T00:00:24.354Z,10.99
2023-04-20T00:02:56.635Z,10.91
2023-04-20T00:05:30.655Z,10.82
2023-04-20T00:08:04.048Z,10.76
2023-04-20T00:10:36.306Z,10.71
2023-04-20T00:13:08.342Z,10.69
2023-04-20T00:15:40.639Z,10.53
2023-04-20T00:18:12.855Z,10.46
2023-04-20T00:20:45.175Z,10.28
2023-04-20T00:23:17.370Z,10.25
2023-04-20T00:25:49.881Z,10.15
2023-04-20T00:28:22.221Z,10.14
2023-04-20T00:30:54.397Z,10.07
2023-04-20T00:33:26.599Z,10.03
2023-04-20T00:35:58.976Z,9.97
2023-04-20T00:38:31.453Z,9.95
2023-04-20T00:41:03.995Z,9.81
2023-04-20T00:43:36.276Z,9.77
2023-04-20T00:46:11.809Z,9.69
2023-04-20T00:48:44.515Z,9.65
2023-04-20T00:51:16.761Z,9.56
2023-04-20T00:53:50.672Z,9.56
2023-04-20T00:56:22.927Z,9.48
2023-04-20T00:58:55.565Z,9.49
2023-04-20T01:01:27.849Z,9.50
2023-04-20T01:04:00.178Z,9.52
2023-04-20T01:06:33.710Z,9.54
2023-04-20T01:09:06.023Z,9.58
2023-04-20T01:11:41.418Z,9.59
2023-04-20T01:14:13.774Z,9.57
2023-04-20T01:16:47.413Z,9.62
2023-04-20T01:19:22.521Z,9.61
2023-04-20T01:21:54.874Z,9.62
2023-04-20T01:24:27.890Z,9.64
2023-04-20T01:27:01.790Z,9.62
2023-04-20T01:29:37.139Z,9.69
2023-04-20T01:32:09.682Z,9.61
2023-04-20T01:34:42.235Z,9.56
2023-04-20T01:37:15.589Z,9.57
2023-04-20T01:39:48.151Z,9.60
2023-04-20T01:42:20.708Z,9.65
2023-04-20T01:44:54.291Z,9.70
2023-04-20T01:47:26.812Z,9.71
2023-04-20T01:49:59.372Z,9.79
2023-04-20T01:52:31.737Z,9.82
2023-04-20T01:55:04.218Z,9.80
2023-04-20T01:57:36.687Z,9.83
2023-04-20T02:00:12.614Z,9.91
2023-04-20T02:02:45.049Z,9.91
2023-04-20T02:05:17.555Z,9.90
2023-04-20T02:07:49.617Z,9.89
2023-04-20T02:10:21.957Z,9.87
2023-04-20T02:12:54.684Z,9.90
2023-04-20T02:15:27.042Z,9.96
2023-04-20T02:17:59.749Z,9.99
2023-04-20T02:20:32.080Z,10.03
2023-04-20T02:23:04.392Z,10.03
2023-04-20T02:25:36.898Z,9.96
2023-04-20T02:28:11.923Z,9.94
2023-04-20T02:30:44.358Z,9.82
2023-04-20T02:33:19.922Z,9.72
2023-04-20T02:35:52.218Z,9.72
2023-04-20T02:38:24.495Z,9.80
2023-04-20T02:40:56.679Z,9.52
2023-04-20T02:43:28.999Z,9.41
2023-04-20T02:46:01.406Z,9.53
2023-04-20T02:48:33.567Z,9.56
2023-04-20T02:51:05.808Z,9.46
2023-04-20T02:53:37.957Z,9.43
2023-04-20T02:56:10.319Z,9.39
2023-04-20T02:58:42.744Z,9.41
2023-04-20T03:01:15.238Z,9.39
2023-04-20T03:03:47.649Z,9.46
2023-04-20T03:06:19.966Z,9.45
2023-04-20T03:08:52.464Z,9.41
2023-04-20T03:11:24.743Z,9.48
2023-04-20T03:13:57.076Z,9.48
2023-04-20T03:16:29.258Z,9.50
2023-04-20T03:19:01.487Z,9.52
2023-04-20T03:21:35.126Z,9.53
2023-04-20T03:24:10.386Z,9.51
2023-04-20T03:26:43.141Z,9.59
2023-04-20T03:29:15.960Z,9.57
2023-04-20T03:31:49.679Z,9.57
2023-04-20T03:34:25.090Z,9.53
2023-04-20T03:36:57.453Z,9.40
2023-04-20T03:39:29.741Z,9.39
2023-04-20T03:42:06.851Z,9.42
2023-04-20T03:44:39.152Z,9.42
2023-04-20T03:47:11.568Z,9.45
2023-04-20T03:49:46.664Z,9.41
2023-04-20T03:52:18.989Z,9.44
2023-04-20T03:54:51.745Z,9.40
2023-04-20T03:57:31.136Z,9.37
2023-04-20T04:00:04.840Z,9.34
2023-04-20T04:02:38.286Z,9.33
2023-04-20T04:05:13.036Z,9.27
2023-04-20T04:07:46.747Z,9.24
2023-04-20T04:10:19.829Z,9.11
2023-04-20T04:12:52.061Z,9.06
2023-04-20T04:15:24.503Z,9.03
2023-04-20T04:17:56.789Z,8.89
2023-04-20T04:20:28.971Z,8.89
2023-04-20T04:23:01.103Z,8.87
2023-04-20T04:25:33.875Z,8.83
2023-04-20T04:28:06.681Z,8.78
2023-04-20T04:30:48.560Z,8.76
2023-04-20T04:33:22.070Z,8.77
2023-04-20T04:35:55.557Z,8.78
2023-04-20T04:38:37.297Z,8.83
2023-04-20T04:41:09.648Z,8.81
2023-04-20T04:43:42.468Z,8.83
2023-04-20T04:46:18.264Z,8.85
2023-04-20T04:48:50.803Z,8.84
2023-04-20T04:51:22.922Z,8.83
2023-04-20T04:53:57.814Z,8.87
2023-04-20T04:56:29.912Z,8.92
2023-04-20T04:59:02.099Z,9.00
2023-04-20T05:01:40.388Z,8.99
2023-04-20T05:04:12.586Z,8.98
2023-04-20T05:06:45.042Z,9.03
2023-04-20T05:09:17.471Z,9.09
2023-04-20T05:11:49.766Z,9.18
2023-04-20T05:14:21.854Z,9.11
2023-04-20T05:16:53.998Z,9.11
2023-04-20T05:19:26.333Z,9.01
2023-04-20T05:21:58.455Z,8.99
2023-04-20T05:24:30.761Z,9.00
2023-04-20T05:27:04.497Z,9.00
2023-04-20T05:29:36.605Z,9.01
2023-04-20T05:32:08.891Z,9.02
2023-04-20T05:34:41.129Z,9.06
2023-04-20T05:37:13.553Z,9.04
2023-04-20T05:39:45.647Z,9.07
2023-04-20T05:42:17.692Z,9.06
2023-04-20T05:44:49.729Z,9.10
2023-04-20T05:47:21.856Z,9.16
2023-04-20T05:49:56.806Z,9.12
2023-04-20T05:52:28.856Z,9.09
2023-04-20T05:55:00.989Z,9.19
2023-04-20T05:57:33.035Z,9.15
2023-04-20T06:00:06.213Z,9.16
2023-04-20T06:02:38.501Z,9.20
2023-04-20T06:05:11.586Z,9.19
2023-04-20T06:07:43.832Z,9.19
2023-04-20T06:10:16.120Z,9.27
2023-04-20T06:12:48.378Z,9.34
2023-04-20T06:15:20.689Z,9.36
2023-04-20T06:17:52.939Z,9.44
2023-04-20T06:20:25.225Z,9.47
2023-04-20T06:22:57.367Z,9.60
2023-04-20T06:25:29.614Z,9.68
2023-04-20T06:28:01.772Z,9.84
2023-04-20T06:30:34.675Z,9.87
2023-04-20T06:33:08.044Z,9.89
2023-04-20T06:35:41.792Z,9.94
2023-04-20T06:38:24.270Z,9.83
2023-04-20T06:40:59.005Z,9.83
2023-04-20T06:43:31.836Z,9.71
2023-04-20T06:46:04.572Z,9.74
2023-04-20T06:48:38.978Z,9.83
2023-04-20T06:51:14.184Z,9.79
2023-04-20T06:53:46.650Z,9.75
2023-04-20T06:56:18.910Z,9.90
2023-04-20T06:58:51.251Z,9.98
2023-04-20T07:01:23.473Z,10.20
2023-04-20T07:04:48.819Z,10.24
2023-04-20T07:07:21.442Z,10.41
2023-04-20T07:09:54.892Z,10.20
2023-04-20T07:12:27.098Z,10.21
2023-04-20T07:14:59.453Z,10.20
2023-04-20T07:17:32.748Z,10.15
2023-04-20T07:20:09.547Z,10.21
2023-04-20T07:22:41.907Z,10.13
2023-04-20T07:25:14.578Z,10.06
2023-04-20T07:27:46.980Z,10.16
2023-04-20T07:30:19.203Z,10.11
2023-04-20T07:32:51.396Z,10.25
2023-04-20T07:35:23.976Z,10.28
2023-04-20T07:37:56.336Z,10.14
2023-04-20T07:40:28.992Z,9.96
2023-04-20T07:43:03.862Z,9.91
2023-04-20T07:45:36.102Z,10.04
2023-04-20T07:48:09.857Z,10.12
2023-04-20T07:50:42.391Z,10.29
2023-04-20T07:53:14.562Z,10.29
2023-04-20T07:55:47.413Z,10.26
2023-04-20T07:58:21.835Z,10.35
2023-04-20T08:00:53.906Z,10.23
2023-04-20T08:06:16.342Z,9.78
2023-04-20T08:08:48.654Z,9.84
2023-04-20T08:11:21.853Z,9.87
2023-04-20T08:13:55.022Z,10.09
2023-04-20T08:16:28.334Z,10.02
2023-04-20T08:19:01.948Z,10.17
2023-04-20T08:21:35.657Z,10.38
2023-04-20T08:24:08.986Z,10.39
2023-04-20T08:26:41.108Z,10.41
2023-04-20T08:29:13.336Z,10.26
2023-04-20T08:31:45.642Z,10.10
2023-04-20T08:34:19.139Z,10.08
2023-04-20T08:36:51.585Z,10.04
2023-04-20T08:39:24.489Z,10.12
2023-04-20T08:41:57.552Z,10.22
2023-04-20T08:44:29.775Z,10.28
2023-04-20T08:47:03.275Z,10.34
2023-04-20T08:49:36.352Z,10.12
2023-04-20T08:52:13.920Z,10.02
2023-04-20T08:54:56.122Z,10.14
2023-04-20T08:57:29.206Z,10.28
2023-04-20T09:00:05.799Z,10.29
2023-04-20T09:02:53.536Z,10.36
2023-04-20T09:05:32.333Z,10.30
2023-04-20T09:08:05.446Z,10.10
2023-04-20T09:10:43.814Z,10.09
2023-04-20T09:13:23.639Z,10.21
2023-04-20T09:15:55.865Z,10.41
2023-04-20T09:18:27.958Z,10.63
2023-04-20T09:21:09.761Z,10.74
2023-04-20T09:23:42.005Z,10.66
2023-04-20T09:26:19.133Z,10.67
2023-04-20T09:28:51.309Z,10.67
2023-04-20T09:31:24.681Z,10.68
2023-04-20T09:34:03.176Z,10.59
2023-04-20T09:36:37.691Z,10.43
2023-04-20T09:39:21.600Z,10.38
2023-04-20T09:41:53.635Z,10.45
2023-04-20T09:44:25.912Z,10.51
2023-04-20T09:46:58.656Z,10.54
2023-04-20T09:49:30.895Z,10.40
2023-04-20T09:52:04.734Z,10.43
2023-04-20T09:54:38.759Z,10.47
2023-04-20T09:57:13.112Z,10.32
2023-04-20T09:59:47.719Z,10.35
2023-04-20T10:02:19.949Z,10.91
2023-04-20T10:04:57.569Z,12.54
2023-04-20T10:07:32.118Z,13.68
2023-04-20T10:10:12.880Z,14.70
2023-04-20T10:12:53.100Z,16.77
2023-04-20T10:15:40.682Z,17.58
2023-04-20T10:18:21.252Z,18.20
2023-04-20T10:21:07.178Z,18.32
2023-04-20T10:23:50.616Z,18.52
2023-04-20T10:26:23.644Z,17.73
2023-04-20T10:28:55.827Z,17.14
2023-04-20T10:31:38.133Z,17.09
2023-04-20T10:34:10.361Z,16.72
2023-04-20T10:36:42.966Z,16.37
2023-04-20T10:39:21.039Z,15.68
2023-04-20T10:42:03.674Z,15.44
2023-04-20T10:44:36.030Z,14.91
2023-04-20T10:47:08.149Z,15.02
2023-04-20T10:49:40.378Z,15.18
2023-04-20T10:52:13.345Z,15.07
2023-04-20T10:54:46.687Z,15.01
2023-04-20T10:57:18.805Z,14.84
2023-04-20T10:59:50.999Z,14.95
2023-04-20T11:02:23.750Z,16.09
2023-04-20T11:05:01.158Z,17.62
2023-04-20T11:07:33.610Z,18.63
2023-04-20T11:10:08.202Z,18.15
2023-04-20T11:12:40.466Z,17.57
2023-04-20T11:15:13.638Z,18.49
2023-04-20T11:21:42.960Z,16.26
2023-04-20T11:24:27.032Z,16.09
2023-04-20T11:26:59.692Z,16.79
2023-04-20T11:29:33.752Z,17.62
2023-04-20T11:32:11.323Z,17.37
2023-04-20T11:34:46.104Z,16.73
2023-04-20T11:37:20.130Z,16.34
2023-04-20T11:40:09.801Z,17.55
2023-04-20T11:42:41.988Z,18.93
2023-04-20T11:45:18.189Z,18.58
2023-04-20T11:47:51.293Z,19.19
2023-04-20T11:50:23.917Z,20.62
2023-04-20T11:52:56.043Z,21.36
2023-04-20T11:55:28.218Z,22.82
2023-04-20T11:58:00.436Z,21.99
2023-04-20T12:00:32.650Z,23.45
2023-04-20T12:03:12.553Z,23.34
2023-04-20T12:05:44.766Z,21.72
2023-04-20T12:08:17.506Z,20.80
2023-04-20T12:14:42.003Z,22.86
2023-04-20T12:17:14.117Z,22.50
2023-04-20T12:19:46.226Z,22.45
2023-04-20T12:22:23.638Z,21.43
2023-04-20T12:24:55.908Z,21.49
2023-04-20T12:27:28.336Z,22.44
2023-04-20T12:30:00.686Z,23.64
2023-04-20T12:32:36.427Z,24.13
2023-04-20T12:35:09.772Z,23.78
2023-04-20T12:37:41.873Z,22.70
2023-04-20T12:40:14.173Z,21.02
2023-04-20T12:42:46.495Z,19.90
2023-04-20T12:45:18.870Z,20.70
2023-04-20T12:48:11.440Z,20.93
2023-04-20T12:50:43.965Z,19.60
2023-04-20T12:53:16.067Z,18.91
2023-04-20T12:55:49.540Z,18.17
2023-04-20T12:58:28.115Z,17.46
2023-04-20T13:01:00.527Z,17.08
2023-04-20T13:03:33.090Z,17.37
2023-04-20T13:06:06.336Z,17.72
2023-04-20T13:08:38.447Z,17.29
2023-04-20T13:11:15.670Z,16.92
2023-04-20T13:13:47.750Z,16.59
2023-04-20T13:16:19.872Z,16.18
2023-04-20T13:18:52.153Z,15.99
2023-04-20T13:25:26.848Z,16.49
2023-04-20T13:27:59.706Z,16.80
2023-04-20T13:30:32.570Z,16.49
2023-04-20T13:33:04.720Z,16.51
2023-04-20T13:35:37.396Z,15.99
2023-04-20T13:38:09.490Z,16.02
2023-04-20T13:40:44.357Z,16.34
2023-04-20T13:43:16.732Z,16.38
2023-04-20T13:45:50.462Z,16.41
2023-04-20T13:48:22.717Z,16.25
2023-04-20T13:50:54.948Z,16.00
2023-04-20T13:53:27.654Z,15.75
2023-04-20T13:55:59.954Z,15.62
2023-04-20T13:58:32.250Z,15.50
2023-04-20T14:01:17.750Z,15.40
2023-04-20T14:03:52.001Z,15.13
2023-04-20T14:06:24.328Z,14.98
2023-04-20T14:08:56.551Z,14.88
2023-04-20T14:11:28.743Z,15.00
2023-04-20T14:14:01.118Z,14.89
2023-04-20T14:16:33.524Z,14.77
2023-04-20T14:19:05.680Z,14.72
2023-04-20T14:21:38.013Z,14.34
2023-04-20T14:24:11.716Z,14.23
2023-04-20T14:26:44.037Z,14.17
2023-04-20T14:29:16.851Z,14.06
2023-04-20T14:32:11.161Z,14.07
2023-04-20T14:34:43.259Z,14.04
2023-04-20T14:37:15.598Z,13.93
2023-04-20T14:39:47.799Z,13.82
2023-04-20T14:42:19.966Z,13.56
2023-04-20T14:45:41.700Z,13.16
2023-04-20T14:48:13.935Z,13.29
2023-04-20T14:50:46.051Z,13.35
2023-04-20T14:53:18.105Z,13.27
2023-04-20T14:55:51.491Z,12.96
2023-04-20T14:58:23.925Z,12.99
2023-04-20T15:00:56.081Z,13.10
2023-04-20T15:03:28.404Z,13.08
2023-04-20T15:06:02.607Z,13.16
2023-04-20T15:08:34.914Z,13.02
2023-04-20T15:11:09.183Z,12.98
2023-04-20T15:13:42.554Z,12.80
2023-04-20T15:16:15.152Z,12.69
2023-04-20T15:18:47.367Z,12.61
2023-04-20T15:21:23.648Z,12.52
2023-04-20T15:23:55.779Z,12.57
2023-04-20T15:26:28.059Z,12.35
2023-04-20T15:29:00.317Z,12.14
2023-04-20T15:31:32.565Z,12.27
2023-04-20T15:34:04.756Z,12.29
2023-04-20T15:36:36.907Z,12.30
2023-04-20T15:39:53.735Z,12.36
2023-04-20T15:42:26.484Z,12.25
2023-04-20T15:44:58.632Z,12.32
2023-04-20T15:48:09.363Z,12.22
2023-04-20T15:50:41.632Z,12.25
2023-04-20T15:53:13.882Z,12.32
2023-04-20T15:55:46.979Z,12.30
2023-04-20T15:58:19.230Z,12.21
2023-04-20T16:00:51.410Z,12.19
2023-04-20T16:03:23.952Z,12.19
2023-04-20T16:05:56.148Z,12.25
2023-04-20T16:08:28.281Z,12.16
2023-04-20T16:11:00.655Z,12.17
2023-04-20T16:13:33.078Z,12.15
2023-04-20T16:16:05.484Z,12.05
2023-04-20T16:18:37.782Z,12.00
2023-04-20T16:21:10.005Z,12.09
2023-04-20T16:23:42.148Z,12.03
2023-04-20T16:26:14.369Z,11.97
2023-04-20T16:28:46.665Z,11.85
2023-04-20T16:31:20.584Z,11.80
2023-04-20T16:33:53.056Z,11.81
2023-04-20T16:36:25.858Z,11.82
2023-04-20T16:38:58.081Z,11.75
2023-04-20T16:41:30.225Z,11.79
2023-04-20T16:44:02.328Z,11.76
2023-04-20T16:46:34.558Z,11.81
2023-04-20T16:49:06.800Z,11.82
2023-04-20T16:51:39.076Z,11.81
2023-04-20T16:54:11.845Z,11.90
2023-04-20T16:57:09.624Z,11.97
2023-04-20T16:59:42.187Z,12.10
2023-04-20T17:02:16.108Z,12.05
2023-04-20T17:04:48.216Z,12.17
2023-04-20T17:07:20.471Z,12.22
2023-04-20T17:11:09.189Z,12.34
2023-04-20T17:13:41.351Z,12.47
2023-04-20T17:16:13.531Z,12.53
2023-04-20T17:18:45.778Z,12.45
2023-04-20T17:21:18.185Z,12.46
2023-04-20T17:23:50.345Z,12.40
2023-04-20T17:26:22.371Z,12.34
2023-04-20T17:28:54.719Z,12.33
2023-04-20T17:31:26.874Z,12.33
2023-04-20T17:33:59.877Z,12.37
2023-04-20T17:36:32.150Z,12.37
2023-04-20T17:39:04.400Z,12.41
2023-04-20T17:41:36.544Z,12.35
2023-04-20T17:44:11.592Z,12.29
2023-04-20T17:46:44.318Z,12.21
2023-04-20T17:49:16.471Z,12.27
2023-04-20T17:51:48.520Z,12.31
2023-04-20T17:54:20.831Z,12.32
2023-04-20T17:56:53.063Z,12.27
2023-04-20T17:59:25.177Z,12.25
2023-04-20T18:01:57.327Z,12.16
2023-04-20T18:04:29.738Z,12.15
2023-04-20T18:07:02.021Z,12.13
2023-04-20T18:09:34.167Z,12.10
2023-04-20T18:12:13.342Z,12.13
2023-04-20T18:14:46.339Z,12.29
2023-04-20T18:17:18.559Z,12.25
2023-04-20T18:19:50.761Z,12.28
2023-04-20T18:22:24.393Z,12.26
2023-04-20T18:24:56.521Z,12.27
2023-04-20T18:27:28.622Z,12.24
2023-04-20T18:30:01.787Z,12.25
2023-04-20T18:32:36.326Z,12.25
2023-04-20T18:35:09.718Z,12.22
2023-04-20T18:37:41.889Z,12.23
2023-04-20T18:40:16.093Z,12.23
2023-04-20T18:42:50.383Z,12.24
2023-04-20T18:45:24.086Z,12.28
2023-04-20T18:47:58.321Z,12.27
2023-04-20T18:50:30.438Z,12.29
2023-04-20T18:53:02.557Z,12.27
2023-04-20T18:55:34.847Z,12.26
2023-04-20T18:58:07.143Z,12.25
2023-04-20T19:00:42.202Z,12.28
2023-04-20T19:03:14.490Z,12.28
2023-04-20T19:05:46.917Z,12.32
2023-04-20T19:08:18.985Z,12.31
2023-04-20T19:10:51.442Z,12.27
2023-04-20T19:13:24.024Z,12.27
2023-04-20T19:15:59.510Z,12.26
2023-04-20T19:18:31.713Z,12.22
2023-04-20T19:21:04.108Z,12.21
2023-04-20T19:23:36.410Z,12.22
2023-04-20T19:26:08.894Z,12.23
2023-04-20T19:28:41.008Z,12.22
2023-04-20T19:31:13.838Z,12.24
2023-04-20T19:33:46.113Z,12.19
2023-04-20T19:36:19.461Z,12.17
2023-04-20T19:38:51.596Z,12.11
2023-04-20T19:41:23.709Z,12.13
2023-04-20T19:43:57.084Z,12.11
2023-04-20T19:49:39.362Z,11.98
2023-04-20T19:52:14.544Z,11.91
2023-04-20T19:54:47.764Z,11.85
2023-04-20T19:57:19.935Z,11.80
2023-04-20T19:59:52.242Z,11.74
2023-04-20T20:02:24.645Z,11.70
2023-04-20T20:04:57.059Z,11.69
2023-04-20T20:07:29.194Z,11.65
2023-04-20T20:10:01.701Z,11.61
2023-04-20T20:12:33.987Z,11.58
2023-04-20T20:17:58.790Z,11.55
2023-04-20T20:20:34.547Z,11.51
2023-04-20T20:23:10.619Z,11.49
2023-04-20T20:25:42.870Z,11.46
2023-04-20T20:28:15.555Z,11.46
2023-04-20T20:33:38.662Z,11.41
2023-04-20T20:36:10.856Z,11.37
2023-04-20T20:38:43.767Z,11.35
2023-04-20T20:41:16.767Z,11.35
2023-04-20T20:43:51.039Z,11.35
2023-04-20T20:46:23.298Z,11.37
2023-04-20T20:48:56.476Z,11.34
2023-04-20T20:51:29.158Z,11.26
2023-04-20T20:54:19.465Z,11.21
2023-04-20T20:56:51.700Z,11.16
2023-04-20T20:59:40.185Z,11.15
2023-04-20T21:05:37.261Z,11.14
2023-04-20T21:08:13.124Z,11.15
2023-04-20T21:10:45.445Z,11.11
2023-04-20T21:13:19.432Z,11.12
2023-04-20T21:15:51.993Z,11.11
2023-04-20T21:18:24.315Z,11.10
2023-04-20T21:20:56.477Z,11.12
2023-04-20T21:23:28.598Z,11.15
2023-04-20T21:26:00.844Z,11.15
2023-04-20T21:28:34.072Z,11.13
2023-04-20T21:31:12.575Z,11.13
2023-04-20T21:33:44.629Z,11.06
2023-04-20T21:36:16.744Z,11.06
2023-04-20T21:38:49.069Z,11.08
2023-04-20T21:41:22.093Z,11.08
2023-04-20T21:43:54.236Z,11.06
2023-04-20T21:46:26.429Z,11.04
2023-04-20T21:48:58.659Z,11.01
2023-04-20T21:51:32.096Z,11.01
2023-04-20T21:54:04.283Z,11.02
2023-04-20T21:56:36.378Z,11.04
2023-04-20T21:59:08.548Z,11.06
2023-04-20T22:01:40.810Z,11.02
2023-04-20T22:04:14.081Z,10.98
2023-04-20T22:06:47.088Z,10.96
2023-04-20T22:09:20.059Z,11.00
2023-04-20T22:11:56.104Z,10.98
2023-04-20T22:14:28.464Z,11.03
2023-04-20T22:17:01.970Z,10.95
2023-04-20T22:19:34.131Z,10.96
2023-04-20T22:22:06.380Z,10.99
2023-04-20T22:24:38.533Z,11.00
2023-04-20T22:31:06.905Z,10.89
2023-04-20T22:33:39.149Z,10.91
2023-04-20T22:36:11.271Z,10.96
2023-04-20T22:38:43.545Z,10.95
2023-04-20T22:41:17.421Z,10.94
2023-04-20T22:43:49.821Z,10.86
2023-04-20T22:46:22.173Z,10.91
2023-04-20T22:48:54.512Z,10.86
2023-04-20T22:51:29.151Z,10.84
2023-04-20T22:54:02.724Z,10.83
2023-04-20T22:56:35.382Z,10.86
2023-04-20T22:59:07.677Z,10.85
2023-04-20T23:01:39.781Z,10.90
2023-04-20T23:04:12.027Z,10.89
2023-04-20T23:06:45.611Z,10.83
2023-04-20T23:09:21.072Z,10.83
2023-04-20T23:11:53.980Z,10.95
2023-04-20T23:14:28.218Z,10.83
2023-04-20T23:17:00.373Z,10.75
2023-04-20T23:19:33.596Z,10.78
2023-04-20T23:22:09.122Z,10.76
2023-04-20T23:24:41.227Z,10.69
2023-04-20T23:27:13.380Z,10.69
2023-04-20T23:29:45.608Z,10.72
2023-04-20T23:32:17.763Z,10.70
2023-04-20T23:34:49.812Z,10.67
2023-04-20T23:37:21.929Z,10.63
2023-04-20T23:39:53.985Z,10.63
2023-04-20T23:42:26.069Z,10.67
2023-04-20T23:45:00.353Z,10.72
2023-04-20T23:47:32.765Z,10.66
2023-04-20T23:50:10.433Z,10.65
2023-04-20T23:52:42.605Z,10.65
2023-04-20T23:55:14.932Z,10.67
2023-04-20T23:58:09.224Z,10.69
